createdAt,value
2023-02-18T00:01:58.266Z,93438.69
2023-02-18T00:04:26.930Z,93435.63
2023-02-18T00:06:56.752Z,93434.59
2023-02-18T00:09:25.425Z,93432.59
2023-02-18T00:11:54.469Z,93426.78
2023-02-18T00:14:23.166Z,93434.78
2023-02-18T00:16:52.169Z,93436.22
2023-02-18T00:19:22.256Z,93436.34
2023-02-18T00:21:50.958Z,93433.22
2023-02-18T00:24:21.165Z,93430.53
2023-02-18T00:26:53.036Z,93416.28
2023-02-18T00:29:21.977Z,93404.69
2023-02-18T00:31:50.535Z,93401.81
2023-02-18T00:34:19.001Z,93409.78
2023-02-18T00:36:47.786Z,93401.75
2023-02-18T00:39:16.345Z,93405.53
2023-02-18T00:41:46.422Z,93387.75
2023-02-18T00:44:15.019Z,93394.56
2023-02-18T00:46:44.065Z,93385.41
2023-02-18T00:49:12.605Z,93374.28
2023-02-18T00:51:42.633Z,93375.28
2023-02-18T00:54:11.228Z,93379.09
2023-02-18T00:56:39.896Z,93361.03
2023-02-18T00:59:09.716Z,93363.81
2023-02-18T01:01:38.213Z,93367.56
2023-02-18T01:04:06.912Z,93363.81
2023-02-18T01:06:35.344Z,93356.72
2023-02-18T01:09:04.152Z,93361.81
2023-02-18T01:11:32.795Z,93362.91
2023-02-18T01:14:01.421Z,93355.94
2023-02-18T01:16:31.576Z,93355.16
2023-02-18T01:19:00.039Z,93352.06
2023-02-18T01:21:28.592Z,93354.34
2023-02-18T01:23:58.466Z,93349.78
2023-02-18T01:26:27.808Z,93340.56
2023-02-18T01:28:56.277Z,93342.69
2023-02-18T01:31:25.867Z,93344.31
2023-02-18T01:33:55.814Z,93356.91
2023-02-18T01:36:24.307Z,93348.56
2023-02-18T01:38:53.845Z,93358.66
2023-02-18T01:41:22.325Z,93354.28
2023-02-18T01:44:06.045Z,93346.72
2023-02-18T01:46:34.488Z,93345.59
2023-02-18T01:49:04.610Z,93349.72
2023-02-18T01:51:37.574Z,93356.66
2023-02-18T01:54:11.682Z,93350.25
2023-02-18T01:56:44.489Z,93344.16
2023-02-18T01:59:18.174Z,93340.63
2023-02-18T02:01:48.205Z,93334.97
2023-02-18T02:04:18.777Z,93341.47
2023-02-18T02:06:47.222Z,93316.75
2023-02-18T02:09:19.974Z,93321.16
2023-02-18T02:12:18.171Z,93339.91
2023-02-18T02:15:33.827Z,93325.69
2023-02-18T02:18:19.769Z,93335.31
2023-02-18T02:21:49.638Z,93329.75
2023-02-18T02:25:00.401Z,93334.78
2023-02-18T02:27:53.760Z,93318.56
2023-02-18T02:31:04.767Z,93331.44
2023-02-18T02:34:27.324Z,93337.53
2023-02-18T02:37:00.895Z,93324.81
2023-02-18T02:39:38.871Z,93318.56
2023-02-18T02:42:16.069Z,93320.13
2023-02-18T02:44:55.838Z,93325.50
2023-02-18T02:47:38.230Z,93326.22
2023-02-18T02:50:15.105Z,93329.34
2023-02-18T02:52:49.432Z,93317.25
2023-02-18T02:55:18.140Z,93324.63
2023-02-18T02:57:52.395Z,93323.59
2023-02-18T03:00:32.582Z,93327.19
2023-02-18T03:03:37.911Z,93320.84
2023-02-18T03:06:50.519Z,93330.91
2023-02-18T03:09:24.999Z,93313.97
2023-02-18T03:12:01.285Z,93319.66
2023-02-18T03:14:38.136Z,93302.00
2023-02-18T03:17:14.359Z,93330.78
2023-02-18T03:19:49.618Z,93323.19
2023-02-18T03:22:26.416Z,93313.19
2023-02-18T03:24:57.988Z,93320.56
2023-02-18T03:27:31.836Z,93307.81
2023-02-18T03:30:06.874Z,93296.72
2023-02-18T03:32:37.151Z,93301.69
2023-02-18T03:35:11.021Z,93310.91
2023-02-18T03:37:46.862Z,93296.56
2023-02-18T03:40:17.254Z,93299.44
2023-02-18T03:42:45.962Z,93293.97
2023-02-18T03:45:14.555Z,93289.84
2023-02-18T03:47:43.055Z,93283.50
2023-02-18T03:50:12.034Z,93287.69
2023-02-18T03:52:41.895Z,93288.41
2023-02-18T03:55:10.876Z,93296.19
2023-02-18T03:57:39.351Z,93288.06
2023-02-18T04:00:10.654Z,93285.97
2023-02-18T04:02:39.357Z,93299.97
2023-02-18T04:05:08.957Z,93307.63
2023-02-18T04:07:37.616Z,93301.56
2023-02-18T04:10:09.577Z,93305.34
2023-02-18T04:12:38.056Z,93303.50
2023-02-18T04:15:07.072Z,93301.94
2023-02-18T04:17:36.225Z,93298.81
2023-02-18T04:20:05.756Z,93302.28
2023-02-18T04:22:34.236Z,93309.13
2023-02-18T04:25:02.718Z,93292.31
2023-02-18T04:27:32.530Z,93296.19
2023-02-18T04:30:01.334Z,93297.22
2023-02-18T04:32:29.855Z,93279.19
2023-02-18T04:34:58.669Z,93292.03
2023-02-18T04:37:27.317Z,93287.41
2023-02-18T04:39:56.006Z,93292.97
2023-02-18T04:42:24.594Z,93290.13
2023-02-18T04:44:54.398Z,93300.63
2023-02-18T04:47:22.960Z,93291.28
2023-02-18T04:49:51.454Z,93308.19
2023-02-18T04:52:20.575Z,93299.75
2023-02-18T04:54:49.541Z,93291.69
2023-02-18T04:57:18.019Z,93294.56
2023-02-18T04:59:46.446Z,93296.00
2023-02-18T05:02:16.275Z,93293.69
2023-02-18T05:04:44.711Z,93269.75
2023-02-18T05:07:13.174Z,93280.41
2023-02-18T05:09:41.755Z,93279.03
2023-02-18T05:12:10.494Z,93280.63
2023-02-18T05:14:39.148Z,93267.44
2023-02-18T05:17:07.607Z,93272.75
2023-02-18T05:19:37.419Z,93280.06
2023-02-18T05:22:05.884Z,93271.16
2023-02-18T05:24:34.332Z,93282.28
2023-02-18T05:27:03.021Z,93274.13
2023-02-18T05:29:31.681Z,93270.25
2023-02-18T05:32:00.602Z,93282.63
2023-02-18T05:34:29.318Z,93272.34
2023-02-18T05:36:59.125Z,93269.41
2023-02-18T05:39:27.706Z,93263.25
2023-02-18T05:41:56.386Z,93269.53
2023-02-18T05:44:33.957Z,93273.72
2023-02-18T05:47:05.004Z,93275.63
2023-02-18T05:49:35.606Z,93269.94
2023-02-18T05:52:06.212Z,93275.56
2023-02-18T05:54:35.408Z,93272.09
2023-02-18T05:57:04.307Z,93257.56
2023-02-18T05:59:33.284Z,93260.59
2023-02-18T06:02:01.808Z,93260.84
2023-02-18T06:04:30.327Z,93253.25
2023-02-18T06:06:58.872Z,93270.13
2023-02-18T06:09:28.723Z,93256.56
2023-02-18T06:11:57.239Z,93271.53
2023-02-18T06:14:26.647Z,93253.91
2023-02-18T06:16:55.120Z,93264.31
2023-02-18T06:19:23.832Z,93260.78
2023-02-18T06:21:52.270Z,93260.78
2023-02-18T06:24:21.028Z,93262.41
2023-02-18T06:26:50.880Z,93261.69
2023-02-18T06:29:19.353Z,93266.47
2023-02-18T06:31:47.856Z,93250.75
2023-02-18T06:34:16.621Z,93273.28
2023-02-18T06:36:45.092Z,93270.72
2023-02-18T06:39:13.609Z,93259.59
2023-02-18T06:41:42.127Z,93250.50
2023-02-18T06:44:12.430Z,93249.13
2023-02-18T06:46:40.902Z,93251.94
2023-02-18T06:49:09.392Z,93258.03
2023-02-18T06:51:37.824Z,93251.22
2023-02-18T06:54:07.226Z,93257.47
2023-02-18T06:56:35.668Z,93265.41
2023-02-18T06:59:04.166Z,93267.44
2023-02-18T07:01:34.214Z,93271.09
2023-02-18T07:04:02.776Z,93259.59
2023-02-18T07:06:31.240Z,93255.47
2023-02-18T07:08:59.685Z,93262.41
2023-02-18T07:11:28.243Z,93255.91
2023-02-18T07:13:56.715Z,93269.16
2023-02-18T07:16:25.441Z,93276.38
2023-02-18T07:18:55.346Z,93270.34
2023-02-18T07:21:23.770Z,93267.59
2023-02-18T07:23:52.193Z,93248.44
2023-02-18T07:26:20.659Z,93260.00
2023-02-18T07:28:49.135Z,93261.50
2023-02-18T07:31:17.987Z,93257.66
2023-02-18T07:33:46.544Z,93260.84
2023-02-18T07:36:16.399Z,93263.59
2023-02-18T07:38:44.856Z,93258.19
2023-02-18T07:41:20.664Z,93281.78
2023-02-18T07:43:49.255Z,93278.72
2023-02-18T07:46:18.357Z,93268.72
2023-02-18T07:48:46.791Z,93274.13
2023-02-18T07:51:16.600Z,93267.16
2023-02-18T07:53:45.168Z,93259.53
2023-02-18T07:56:13.860Z,93269.94
2023-02-18T07:58:42.353Z,93265.69
2023-02-18T08:01:14.870Z,93273.75
2023-02-18T08:03:43.646Z,93284.09
2023-02-18T08:06:23.972Z,93280.63
2023-02-18T08:08:52.678Z,93276.31
2023-02-18T08:11:21.123Z,93277.88
2023-02-18T08:13:50.248Z,93280.56
2023-02-18T08:16:20.814Z,93303.19
2023-02-18T08:18:50.745Z,93289.50
2023-02-18T08:21:22.711Z,93286.09
2023-02-18T08:23:51.541Z,93285.31
2023-02-18T08:26:21.077Z,93294.19
2023-02-18T08:28:50.133Z,93280.72
2023-02-18T08:31:21.295Z,93289.56
2023-02-18T08:33:50.230Z,93278.09
2023-02-18T08:36:20.169Z,93281.91
2023-02-18T08:38:48.736Z,93297.34
2023-02-18T08:41:19.155Z,93293.47
2023-02-18T08:43:48.181Z,93293.09
2023-02-18T08:46:25.325Z,93285.44
2023-02-18T08:49:04.278Z,93285.03
2023-02-18T08:51:34.293Z,93298.91
2023-02-18T08:54:03.035Z,93291.25
2023-02-18T08:56:32.712Z,93287.00
2023-02-18T08:59:01.515Z,93295.84
2023-02-18T09:01:30.029Z,93288.19
2023-02-18T09:03:58.828Z,93280.88
2023-02-18T09:06:27.338Z,93285.50
2023-02-18T09:08:57.374Z,93283.56
2023-02-18T09:11:25.835Z,93288.97
2023-02-18T09:13:54.279Z,93276.75
2023-02-18T09:16:26.076Z,93287.41
2023-02-18T09:18:54.867Z,93287.34
2023-02-18T09:21:24.729Z,93276.59
2023-02-18T09:23:53.449Z,93286.38
2023-02-18T09:26:25.140Z,93285.13
2023-02-18T09:28:55.460Z,93295.06
2023-02-18T09:31:26.628Z,93288.44
2023-02-18T09:33:57.412Z,93301.53
2023-02-18T09:36:26.267Z,93294.66
2023-02-18T09:38:55.323Z,93288.13
2023-02-18T09:41:35.122Z,93305.78
2023-02-18T09:44:06.888Z,93293.38
2023-02-18T09:46:41.209Z,93291.56
2023-02-18T09:49:19.055Z,93285.84
2023-02-18T09:51:48.283Z,93301.91
2023-02-18T09:54:20.188Z,93291.13
2023-02-18T09:56:51.097Z,93280.69
2023-02-18T09:59:22.802Z,93283.41
2023-02-18T10:01:54.557Z,93291.06
2023-02-18T10:04:30.445Z,93280.78
2023-02-18T10:06:59.824Z,93276.28
2023-02-18T10:09:35.692Z,93274.53
2023-02-18T10:12:16.551Z,93281.47
2023-02-18T10:14:50.919Z,93293.69
2023-02-18T10:17:20.291Z,93283.69
2023-02-18T10:19:50.501Z,93258.81
2023-02-18T10:22:20.357Z,93280.22
2023-02-18T10:24:52.476Z,93278.50
2023-02-18T10:27:27.934Z,93274.44
2023-02-18T10:29:57.690Z,93272.16
2023-02-18T10:32:34.204Z,93262.41
2023-02-18T10:35:17.117Z,93261.22
2023-02-18T10:38:00.857Z,93269.66
2023-02-18T10:40:38.042Z,93267.47
2023-02-18T10:43:20.193Z,93252.94
2023-02-18T10:45:59.772Z,93248.28
2023-02-18T10:48:56.790Z,93245.84
2023-02-18T10:51:29.817Z,93236.03
2023-02-18T10:53:58.511Z,93257.03
2023-02-18T10:56:40.095Z,93251.88
2023-02-18T10:59:16.191Z,93243.59
2023-02-18T11:01:45.531Z,93251.69
2023-02-18T11:04:18.405Z,93249.34
2023-02-18T11:06:50.092Z,93247.44
2023-02-18T11:09:35.842Z,93261.81
2023-02-18T11:12:09.267Z,93255.13
2023-02-18T11:14:43.338Z,93248.03
2023-02-18T11:17:21.016Z,93259.31
2023-02-18T11:20:01.765Z,93250.94
2023-02-18T11:22:35.044Z,93261.91
2023-02-18T11:25:16.500Z,93265.47
2023-02-18T11:27:49.958Z,93259.63
2023-02-18T11:30:26.112Z,93252.34
2023-02-18T11:32:58.884Z,93262.00
2023-02-18T11:35:31.739Z,93245.44
2023-02-18T11:38:02.314Z,93253.41
2023-02-18T11:40:35.234Z,93248.88
2023-02-18T11:43:12.355Z,93242.47
2023-02-18T11:45:43.241Z,93235.78
2023-02-18T11:48:19.398Z,93229.28
2023-02-18T11:50:54.193Z,93248.91
2023-02-18T11:53:32.512Z,93231.22
2023-02-18T11:56:03.807Z,93223.16
2023-02-18T11:58:42.411Z,93233.50
2023-02-18T12:01:22.511Z,93218.94
2023-02-18T12:03:55.862Z,93215.97
2023-02-18T12:06:32.498Z,93220.69
2023-02-18T12:09:07.888Z,93213.75
2023-02-18T12:11:43.160Z,93210.03
2023-02-18T12:14:19.240Z,93200.06
2023-02-18T12:17:13.829Z,93202.56
2023-02-18T12:20:15.059Z,93198.34
2023-02-18T12:22:46.160Z,93195.81
2023-02-18T12:25:30.231Z,93192.56
2023-02-18T12:28:18.675Z,93200.00
2023-02-18T12:31:18.804Z,93190.00
2023-02-18T12:34:07.141Z,93202.75
2023-02-18T12:36:50.815Z,93188.34
2023-02-18T12:39:36.038Z,93181.16
2023-02-18T12:42:24.698Z,93194.56
2023-02-18T12:45:19.410Z,93193.88
2023-02-18T12:48:16.441Z,93190.88
2023-02-18T12:51:09.206Z,93187.31
2023-02-18T12:54:09.406Z,93190.09
2023-02-18T12:57:04.644Z,93201.22
2023-02-18T13:00:09.936Z,93197.56
2023-02-18T13:03:13.831Z,93197.50
2023-02-18T13:05:56.337Z,93179.03
2023-02-18T13:08:40.987Z,93190.22
2023-02-18T13:11:27.318Z,93199.66
2023-02-18T13:14:04.629Z,93196.66
2023-02-18T13:16:34.845Z,93180.38
2023-02-18T13:19:14.952Z,93184.19
2023-02-18T13:21:46.678Z,93178.13
2023-02-18T13:24:23.493Z,93154.97
2023-02-18T13:26:59.695Z,93172.22
2023-02-18T13:29:34.614Z,93169.97
2023-02-18T13:32:12.663Z,93169.66
2023-02-18T13:34:50.734Z,93142.59
2023-02-18T13:37:31.914Z,93165.81
2023-02-18T13:40:02.360Z,93144.91
2023-02-18T13:42:39.067Z,93158.88
2023-02-18T13:45:30.390Z,93134.94
2023-02-18T13:48:00.545Z,93128.03
2023-02-18T13:50:42.290Z,93136.91
2023-02-18T13:53:25.039Z,93119.72
2023-02-18T13:56:03.080Z,93124.63
2023-02-18T13:58:43.714Z,93135.03
2023-02-18T14:01:24.294Z,93131.97
2023-02-18T14:04:01.563Z,93127.97
2023-02-18T14:06:33.940Z,93137.75
2023-02-18T14:09:37.898Z,93133.28
2023-02-18T14:12:37.944Z,93120.94
2023-02-18T14:15:51.503Z,93127.06
2023-02-18T14:18:50.563Z,93109.06
2023-02-18T14:21:37.761Z,93128.81
2023-02-18T14:24:10.355Z,93132.69
2023-02-18T14:26:45.344Z,93129.47
2023-02-18T14:29:21.022Z,93132.94
2023-02-18T14:31:58.112Z,93127.94
2023-02-18T14:35:07.151Z,93143.34
2023-02-18T14:38:18.339Z,93142.50
2023-02-18T14:41:38.518Z,93135.97
2023-02-18T14:44:37.723Z,93115.88
2023-02-18T14:47:31.571Z,93125.53
2023-02-18T14:50:03.793Z,93113.53
2023-02-18T14:52:36.313Z,93117.81
2023-02-18T14:55:09.378Z,93115.50
2023-02-18T14:57:46.468Z,93127.06
2023-02-18T15:00:18.856Z,93120.91
2023-02-18T15:02:52.070Z,93111.59
2023-02-18T15:05:24.072Z,93115.13
2023-02-18T15:08:01.169Z,93121.34
2023-02-18T15:10:39.139Z,93128.97
2023-02-18T15:13:15.797Z,93115.50
2023-02-18T15:15:45.880Z,93130.09
2023-02-18T15:18:23.382Z,93126.09
2023-02-18T15:20:52.073Z,93126.22
2023-02-18T15:23:20.692Z,93111.16
2023-02-18T15:25:53.302Z,93109.31
2023-02-18T15:28:30.112Z,93114.63
2023-02-18T15:31:00.366Z,93113.00
2023-02-18T15:33:30.064Z,93102.97
2023-02-18T15:36:03.586Z,93109.94
2023-02-18T15:38:33.306Z,93106.13
2023-02-18T15:41:04.255Z,93099.06
2023-02-18T15:43:35.772Z,93112.56
2023-02-18T15:46:14.185Z,93107.56
2023-02-18T15:48:48.620Z,93103.31
2023-02-18T15:51:27.779Z,93108.66
2023-02-18T15:54:00.203Z,93105.84
2023-02-18T15:56:34.658Z,93094.97
2023-02-18T15:59:18.073Z,93095.69
2023-02-18T16:01:51.510Z,93095.22
2023-02-18T16:04:22.288Z,93100.56
2023-02-18T16:06:52.256Z,93093.28
2023-02-18T16:09:26.834Z,93087.72
2023-02-18T16:11:59.790Z,93084.59
2023-02-18T16:14:36.870Z,93073.84
2023-02-18T16:17:16.132Z,93083.00
2023-02-18T16:20:08.951Z,93083.53
2023-02-18T16:22:44.944Z,93072.25
2023-02-18T16:25:20.337Z,93083.72
2023-02-18T16:27:53.777Z,93069.47
2023-02-18T16:30:26.461Z,93077.38
2023-02-18T16:32:55.834Z,93069.38
2023-02-18T16:35:25.567Z,93080.06
2023-02-18T16:37:57.885Z,93072.09
2023-02-18T16:40:31.004Z,93071.31
2023-02-18T16:43:02.656Z,93072.63
2023-02-18T16:45:37.408Z,93080.06
2023-02-18T16:48:07.100Z,93075.09
2023-02-18T16:50:35.863Z,93084.28
2023-02-18T16:53:04.305Z,93073.47
2023-02-18T16:55:32.846Z,93076.56
2023-02-18T16:58:01.309Z,93071.50
2023-02-18T17:00:29.836Z,93071.00
2023-02-18T17:03:02.130Z,93059.75
2023-02-18T17:05:35.600Z,93069.38
2023-02-18T17:08:18.700Z,93072.34
2023-02-18T17:10:48.982Z,93070.88
2023-02-18T17:13:18.094Z,93063.28
2023-02-18T17:15:48.608Z,93074.03
2023-02-18T17:18:18.758Z,93068.47
2023-02-18T17:20:49.679Z,93060.84
2023-02-18T17:23:21.278Z,93065.97
2023-02-18T17:25:51.339Z,93077.59
2023-02-18T17:28:20.148Z,93075.81
2023-02-18T17:30:53.946Z,93080.06
2023-02-18T17:33:25.109Z,93083.53
2023-02-18T17:35:53.632Z,93084.31
2023-02-18T17:38:22.128Z,93099.47
2023-02-18T17:40:51.098Z,93094.72
2023-02-18T17:43:20.208Z,93096.94
2023-02-18T17:45:53.425Z,93096.16
2023-02-18T17:48:23.825Z,93095.41
2023-02-18T17:50:52.652Z,93093.88
2023-02-18T17:53:21.463Z,93105.97
2023-02-18T17:55:51.120Z,93109.53
2023-02-18T17:58:19.653Z,93104.47
2023-02-18T18:00:51.565Z,93117.66
2023-02-18T18:03:20.874Z,93098.75
2023-02-18T18:05:54.685Z,93104.50
2023-02-18T18:08:23.137Z,93110.63
2023-02-18T18:10:54.981Z,93121.38
2023-02-18T18:13:26.402Z,93115.19
2023-02-18T18:15:57.727Z,93104.16
2023-02-18T18:18:27.564Z,93113.06
2023-02-18T18:20:59.912Z,93109.41
2023-02-18T18:23:29.573Z,93105.56
2023-02-18T18:25:59.380Z,93106.63
2023-02-18T18:28:28.935Z,93118.00
2023-02-18T18:30:58.404Z,93120.19
2023-02-18T18:33:29.942Z,93111.31
2023-02-18T18:36:00.982Z,93116.66
2023-02-18T18:38:30.901Z,93118.22
2023-02-18T18:40:59.464Z,93120.19
2023-02-18T18:43:32.792Z,93123.66
2023-02-18T18:46:01.886Z,93123.34
2023-02-18T18:48:30.403Z,93131.44
2023-02-18T18:51:02.354Z,93136.09
2023-02-18T18:53:33.430Z,93130.41
2023-02-18T18:56:04.515Z,93120.75
2023-02-18T18:58:33.416Z,93129.25
2023-02-18T19:01:04.947Z,93118.78
2023-02-18T19:03:35.618Z,93120.00
2023-02-18T19:06:06.545Z,93112.31
2023-02-18T19:08:35.006Z,93111.81
2023-02-18T19:11:03.971Z,93114.44
2023-02-18T19:13:36.001Z,93109.78
2023-02-18T19:16:09.569Z,93108.34
2023-02-18T19:18:38.039Z,93116.47
2023-02-18T19:21:08.526Z,93107.16
2023-02-18T19:23:37.747Z,93106.78
2023-02-18T19:26:07.186Z,93107.63
2023-02-18T19:28:35.966Z,93108.88
2023-02-18T19:31:09.344Z,93118.03
2023-02-18T19:33:39.213Z,93113.22
2023-02-18T19:36:11.176Z,93112.31
2023-02-18T19:38:40.434Z,93110.44
2023-02-18T19:41:12.574Z,93115.81
2023-02-18T19:43:41.429Z,93117.16
2023-02-18T19:46:11.166Z,93118.81
2023-02-18T19:48:43.926Z,93117.28
2023-02-18T19:51:14.817Z,93112.00
2023-02-18T19:53:43.260Z,93114.94
2023-02-18T19:56:12.235Z,93116.03
2023-02-18T19:58:41.174Z,93116.44
2023-02-18T20:01:13.888Z,93124.69
2023-02-18T20:03:42.614Z,93115.31
2023-02-18T20:06:18.840Z,93112.66
2023-02-18T20:08:48.018Z,93110.44
2023-02-18T20:11:16.861Z,93123.16
2023-02-18T20:13:45.835Z,93118.72
2023-02-18T20:16:14.546Z,93128.09
2023-02-18T20:18:43.203Z,93117.88
2023-02-18T20:21:12.983Z,93092.88
2023-02-18T20:23:43.900Z,93115.91
2023-02-18T20:26:14.826Z,93112.00
2023-02-18T20:28:44.817Z,93112.78
2023-02-18T20:31:14.969Z,93123.41
2023-02-18T20:33:44.407Z,93119.31
2023-02-18T20:36:15.321Z,93121.22
2023-02-18T20:38:45.155Z,93121.03
2023-02-18T20:41:17.626Z,93114.34
2023-02-18T20:43:46.763Z,93109.78
2023-02-18T20:46:20.821Z,93106.88
2023-02-18T20:48:49.439Z,93111.38
2023-02-18T20:51:20.748Z,93115.41
2023-02-18T20:53:51.348Z,93106.75
2023-02-18T20:56:21.601Z,93113.34
2023-02-18T20:58:50.143Z,93107.16
2023-02-18T21:01:20.613Z,93110.63
2023-02-18T21:03:50.022Z,93099.88
2023-02-18T21:06:21.411Z,93100.41
2023-02-18T21:08:54.863Z,93101.13
2023-02-18T21:11:26.438Z,93105.94
2023-02-18T21:13:57.769Z,93106.25
2023-02-18T21:16:29.084Z,93096.97
2023-02-18T21:18:57.810Z,93098.13
2023-02-18T21:21:26.969Z,93092.50
2023-02-18T21:23:57.052Z,93099.13
2023-02-18T21:26:27.668Z,93089.81
2023-02-18T21:29:01.136Z,93091.28
2023-02-18T21:31:32.233Z,93089.03
2023-02-18T21:34:01.943Z,93075.66
2023-02-18T21:36:31.977Z,93086.84
2023-02-18T21:39:09.298Z,93083.25
2023-02-18T21:41:41.196Z,93082.88
2023-02-18T21:44:10.345Z,93085.06
2023-02-18T21:46:40.854Z,93073.25
2023-02-18T21:49:12.638Z,93070.56
2023-02-18T21:52:00.810Z,93072.75
2023-02-18T21:54:33.609Z,93073.53
2023-02-18T21:57:04.258Z,93072.22
2023-02-18T21:59:35.301Z,93077.41
2023-02-18T22:02:05.456Z,93075.22
2023-02-18T22:04:37.204Z,93073.63
2023-02-18T22:07:05.905Z,93072.94
2023-02-18T22:09:36.748Z,93074.41
2023-02-18T22:12:06.794Z,93075.63
2023-02-18T22:14:35.306Z,93077.22
2023-02-18T22:17:04.008Z,93081.47
2023-02-18T22:19:32.492Z,93074.16
2023-02-18T22:22:02.613Z,93082.97
2023-02-18T22:24:32.225Z,93085.34
2023-02-18T22:27:02.902Z,93075.47
2023-02-18T22:29:32.644Z,93073.13
2023-02-18T22:32:01.521Z,93065.72
2023-02-18T22:34:30.132Z,93063.78
2023-02-18T22:36:58.640Z,93063.81
2023-02-18T22:39:27.829Z,93074.91
2023-02-18T22:41:56.303Z,93077.22
2023-02-18T22:44:27.372Z,93066.50
2023-02-18T22:46:57.820Z,93068.47
2023-02-18T22:49:26.830Z,93073.75
2023-02-18T22:51:56.076Z,93074.47
2023-02-18T22:54:24.612Z,93062.25
2023-02-18T22:56:55.797Z,93057.69
2023-02-18T22:59:25.618Z,93071.16
2023-02-18T23:01:54.062Z,93062.34
2023-02-18T23:04:23.376Z,93064.63
2023-02-18T23:06:52.249Z,93061.47
2023-02-18T23:09:23.734Z,93056.81
2023-02-18T23:11:54.143Z,93050.72
2023-02-18T23:14:22.963Z,93061.34
2023-02-18T23:17:18.113Z,93057.44
2023-02-18T23:19:49.572Z,93059.47
2023-02-18T23:22:20.681Z,93042.91
2023-02-18T23:24:49.809Z,93042.91
2023-02-18T23:27:18.679Z,93042.06
2023-02-18T23:29:47.178Z,93035.97
2023-02-18T23:32:17.166Z,93035.91
2023-02-18T23:34:45.848Z,93032.84
2023-02-18T23:37:14.646Z,93032.81
2023-02-18T23:39:45.099Z,93028.94
2023-02-18T23:42:14.489Z,93033.44
2023-02-18T23:44:42.918Z,93024.41
2023-02-18T23:47:11.569Z,93033.47
2023-02-18T23:49:41.649Z,93032.72
2023-02-18T23:52:10.084Z,93040.38
2023-02-18T23:54:38.565Z,93043.47
2023-02-18T23:57:06.981Z,93036.59
2023-02-18T23:59:35.455Z,93042.75
